<?xml version="1.0" encoding="utf-8"?>
<gpx xmlns:xsi="http://www.w3.org/2001/XMLSchema-instance" xmlns:xsd="http://www.w3.org/2001/XMLSchema" version="1.1" creator="Shapelink.com" xmlns="http://www.topografix.com/GPX/1/1" xmlns:gpxtpx="http://www.garmin.com/xmlschemas/TrackPointExtension/v1">
  <metadata>
    <name>Övrigt 1.35 km, 2020-08-09</name>
    <desc></desc>
    <author><name>Marian Moron</name></author> 
    <time>2020-08-09T20:43:54Z</time>
  </metadata>
  <trk>
    <name>Övrigt 1.35 km, 2020-08-09</name>
    <trkseg>
      <trkpt lat="51.229203684722" lon="4.458044021183">
        <ele>16</ele>
        <time>2020-08-09T20:43:54Z</time>
      </trkpt>
      <trkpt lat="51.228748463733" lon="4.458135551531">
        <ele>14.4</ele>
        <time>2020-08-09T20:44:29Z</time>
      </trkpt>
      <trkpt lat="51.228509998678" lon="4.458110741107">
        <ele>10</ele>
        <time>2020-08-09T20:44:52Z</time>
      </trkpt>
      <trkpt lat="51.228487786643" lon="4.458021138596">
        <ele>9.4</ele>
        <time>2020-08-09T20:44:56Z</time>
      </trkpt>
      <trkpt lat="51.228504382805" lon="4.457618304482">
        <ele>2.2</ele>
        <time>2020-08-09T20:45:15Z</time>
      </trkpt>
      <trkpt lat="51.228551237626" lon="4.457147157883">
        <ele>0</ele>
        <time>2020-08-09T20:45:51Z</time>
      </trkpt>
      <trkpt lat="51.228748128457" lon="4.456960157694">
        <ele>6.4</ele>
        <time>2020-08-09T20:46:27Z</time>
      </trkpt>
      <trkpt lat="51.229048032839" lon="4.457005000859">
        <ele>10</ele>
        <time>2020-08-09T20:46:52Z</time>
      </trkpt>
      <trkpt lat="51.229478862499" lon="4.456789166934">
        <ele>19</ele>
        <time>2020-08-09T20:47:26Z</time>
      </trkpt>
      <trkpt lat="51.229804164038" lon="4.456993350018">
        <ele>21.8</ele>
        <time>2020-08-09T20:47:53Z</time>
      </trkpt>
      <trkpt lat="51.229845319167" lon="4.457362740351">
        <ele>20.2</ele>
        <time>2020-08-09T20:48:14Z</time>
      </trkpt>
      <trkpt lat="51.229935173135" lon="4.458076040041">
        <ele>12</ele>
        <time>2020-08-09T20:48:45Z</time>
      </trkpt>
      <trkpt lat="51.229979010472" lon="4.458466049848">
        <ele>0</ele>
        <time>2020-08-09T20:49:15Z</time>
      </trkpt>
      <trkpt lat="51.230007006018" lon="4.458748603697">
        <ele>0</ele>
        <time>2020-08-09T20:49:28Z</time>
      </trkpt>
      <trkpt lat="51.230109516655" lon="4.458943901967">
        <ele>7.6</ele>
        <time>2020-08-09T20:49:42Z</time>
      </trkpt>
      <trkpt lat="51.230350077185" lon="4.458970891685">
        <ele>10.6</ele>
        <time>2020-08-09T20:50:09Z</time>
      </trkpt>
      <trkpt lat="51.230440685524" lon="4.459401972802">
        <ele>4</ele>
        <time>2020-08-09T20:50:35Z</time>
      </trkpt>
      <trkpt lat="51.230470776545" lon="4.459832299548">
        <ele>3.8</ele>
        <time>2020-08-09T20:51:01Z</time>
      </trkpt>
      <trkpt lat="51.230454348021" lon="4.459756862448">
        <ele>5.6</ele>
        <time>2020-08-09T20:51:35Z</time>
      </trkpt>
      <trkpt lat="51.230545459274" lon="4.459815787205">
        <ele>7.2</ele>
        <time>2020-08-09T20:52:01Z</time>
      </trkpt>
      <trkpt lat="51.230648389006" lon="4.459832215729">
        <ele>8.6</ele>
        <time>2020-08-09T20:52:22Z</time>
      </trkpt>
      <trkpt lat="51.230522409049" lon="4.459850404452">
        <ele>11.4</ele>
        <time>2020-08-09T20:53:50Z</time>
      </trkpt>
      <trkpt lat="51.230618549442" lon="4.459993986399">
        <ele>12</ele>
        <time>2020-08-09T20:54:02Z</time>
      </trkpt>
      <trkpt lat="51.230676216914" lon="4.46061500137">
        <ele>4.4</ele>
        <time>2020-08-09T20:54:51Z</time>
      </trkpt>
      <trkpt lat="51.230570269698" lon="4.460735281635">
        <ele>5</ele>
        <time>2020-08-09T20:55:08Z</time>
      </trkpt>
      <trkpt lat="51.23045191727" lon="4.460782052637">
        <ele>8.2</ele>
        <time>2020-08-09T20:55:20Z</time>
      </trkpt>
      <trkpt lat="51.23010490661" lon="4.460835277702">
        <ele>20.4</ele>
        <time>2020-08-09T20:55:52Z</time>
      </trkpt>
      <trkpt lat="51.229756303389" lon="4.460965951523">
        <ele>22.4</ele>
        <time>2020-08-09T20:56:49Z</time>
      </trkpt>
      <trkpt lat="51.229602244067" lon="4.461061589002">
        <ele>8.2</ele>
        <time>2020-08-09T20:57:10Z</time>
      </trkpt>
      <trkpt lat="51.229424380149" lon="4.460758667136">
        <ele>5.4</ele>
        <time>2020-08-09T20:57:48Z</time>
      </trkpt>
      <trkpt lat="51.229223466006" lon="4.460567895092">
        <ele>7.6</ele>
        <time>2020-08-09T20:58:17Z</time>
      </trkpt>
      <trkpt lat="51.228777884202" lon="4.460734443445">
        <ele>26.8</ele>
        <time>2020-08-09T20:59:21Z</time>
      </trkpt>
      <trkpt lat="51.228657101023" lon="4.460698317456">
        <ele>30</ele>
        <time>2020-08-09T20:59:28Z</time>
      </trkpt>
      <trkpt lat="51.22828854888" lon="4.460315683721">
        <ele>40.4</ele>
        <time>2020-08-09T21:00:11Z</time>
      </trkpt>
      <trkpt lat="51.228263319361" lon="4.460024664153">
        <ele>50.6</ele>
        <time>2020-08-09T21:00:36Z</time>
      </trkpt>
      <trkpt lat="51.228320232462" lon="4.459693914379">
        <ele>30.8</ele>
        <time>2020-08-09T21:01:17Z</time>
      </trkpt>
      <trkpt lat="51.228434980673" lon="4.45924456072">
        <ele>12</ele>
        <time>2020-08-09T21:01:42Z</time>
      </trkpt>
      <trkpt lat="51.228418971244" lon="4.459201896849">
        <ele>10.8</ele>
        <time>2020-08-09T21:01:44Z</time>
      </trkpt>
      <trkpt lat="51.228531372523" lon="4.45896460526">
        <ele>14.6</ele>
        <time>2020-08-09T21:01:56Z</time>
      </trkpt>
      <trkpt lat="51.228619969206" lon="4.458645087232">
        <ele>10</ele>
        <time>2020-08-09T21:02:10Z</time>
      </trkpt>
      <trkpt lat="51.228611838763" lon="4.458584653733">
        <ele>9.2</ele>
        <time>2020-08-09T21:02:13Z</time>
      </trkpt>
      <trkpt lat="51.228580155181" lon="4.458379632459">
        <ele>6.4</ele>
        <time>2020-08-09T21:02:22Z</time>
      </trkpt>
      <trkpt lat="51.228999836914" lon="4.458141167404">
        <ele>22.2</ele>
        <time>2020-08-09T21:02:59Z</time>
      </trkpt>
      <trkpt lat="51.22915607553" lon="4.458055672024">
        <ele>29.8</ele>
        <time>2020-08-09T21:03:18Z</time>
      </trkpt>
      <trkpt lat="51.229331592516" lon="4.457977049802">
        <ele>28</ele>
        <time>2020-08-09T21:04:05Z</time>
      </trkpt>
      <trkpt lat="51.229722943427" lon="4.457900774512">
        <ele>20.6</ele>
        <time>2020-08-09T21:05:24Z</time>
      </trkpt>
    </trkseg>
  </trk>
</gpx>